sensor_id;sensor_type;location;lat;lon;timestamp;temperature;humidity
32201;DHT22;18701;45.588;5.288;2024-02-26T00:00:04;8.20;99.90
32201;DHT22;18701;45.588;5.288;2024-02-26T00:02:30;8.20;99.90
32201;DHT22;18701;45.588;5.288;2024-02-26T00:04:57;8.20;99.90
32201;DHT22;18701;45.588;5.288;2024-02-26T00:07:23;8.20;99.90
32201;DHT22;18701;45.588;5.288;2024-02-26T00:09:48;8.20;99.90
32201;DHT22;18701;45.588;5.288;2024-02-26T00:12:14;8.20;99.90
32201;DHT22;18701;45.588;5.288;2024-02-26T00:14:39;8.10;99.90
32201;DHT22;18701;45.588;5.288;2024-02-26T00:17:06;8.20;99.90
32201;DHT22;18701;45.588;5.288;2024-02-26T00:19:32;8.20;99.90
32201;DHT22;18701;45.588;5.288;2024-02-26T00:21:57;8.20;99.90
32201;DHT22;18701;45.588;5.288;2024-02-26T00:24:23;8.20;99.90
32201;DHT22;18701;45.588;5.288;2024-02-26T00:26:48;8.30;99.90
32201;DHT22;18701;45.588;5.288;2024-02-26T00:29:18;8.30;99.90
32201;DHT22;18701;45.588;5.288;2024-02-26T00:31:44;8.30;99.90
32201;DHT22;18701;45.588;5.288;2024-02-26T00:34:10;8.40;99.90
32201;DHT22;18701;45.588;5.288;2024-02-26T00:36:35;8.30;99.90
32201;DHT22;18701;45.588;5.288;2024-02-26T00:39:01;8.40;99.90
32201;DHT22;18701;45.588;5.288;2024-02-26T00:41:29;8.40;99.90
32201;DHT22;18701;45.588;5.288;2024-02-26T00:43:54;8.30;99.90
32201;DHT22;18701;45.588;5.288;2024-02-26T00:46:20;8.40;99.90
32201;DHT22;18701;45.588;5.288;2024-02-26T00:48:45;8.40;99.90
32201;DHT22;18701;45.588;5.288;2024-02-26T00:51:11;8.40;99.90
32201;DHT22;18701;45.588;5.288;2024-02-26T00:53:37;8.40;99.90
32201;DHT22;18701;45.588;5.288;2024-02-26T00:56:02;8.30;99.90
32201;DHT22;18701;45.588;5.288;2024-02-26T00:58:28;8.40;99.90
32201;DHT22;18701;45.588;5.288;2024-02-26T01:00:54;8.40;99.90
32201;DHT22;18701;45.588;5.288;2024-02-26T01:03:20;8.50;99.90
32201;DHT22;18701;45.588;5.288;2024-02-26T01:05:46;8.50;99.90
32201;DHT22;18701;45.588;5.288;2024-02-26T01:08:11;8.40;99.90
32201;DHT22;18701;45.588;5.288;2024-02-26T01:10:37;8.40;99.90
32201;DHT22;18701;45.588;5.288;2024-02-26T01:13:03;8.40;99.90
32201;DHT22;18701;45.588;5.288;2024-02-26T01:15:28;8.40;99.90
32201;DHT22;18701;45.588;5.288;2024-02-26T01:17:54;8.50;99.90
32201;DHT22;18701;45.588;5.288;2024-02-26T01:20:20;8.50;99.90
32201;DHT22;18701;45.588;5.288;2024-02-26T01:22:45;8.60;99.90
32201;DHT22;18701;45.588;5.288;2024-02-26T01:25:12;8.50;99.90
32201;DHT22;18701;45.588;5.288;2024-02-26T01:27:38;8.60;99.90
32201;DHT22;18701;45.588;5.288;2024-02-26T01:30:04;8.60;99.90
32201;DHT22;18701;45.588;5.288;2024-02-26T01:32:31;8.60;99.90
32201;DHT22;18701;45.588;5.288;2024-02-26T01:34:57;8.60;99.90
32201;DHT22;18701;45.588;5.288;2024-02-26T01:37:22;8.60;99.90
32201;DHT22;18701;45.588;5.288;2024-02-26T01:39:48;8.60;99.90
32201;DHT22;18701;45.588;5.288;2024-02-26T01:42:14;8.70;99.90
32201;DHT22;18701;45.588;5.288;2024-02-26T01:44:39;8.70;99.90
32201;DHT22;18701;45.588;5.288;2024-02-26T01:47:07;8.60;99.90
32201;DHT22;18701;45.588;5.288;2024-02-26T01:49:35;8.60;99.90
32201;DHT22;18701;45.588;5.288;2024-02-26T01:52:01;8.50;99.90
32201;DHT22;18701;45.588;5.288;2024-02-26T01:54:29;8.50;99.90
32201;DHT22;18701;45.588;5.288;2024-02-26T01:56:55;8.50;99.90
32201;DHT22;18701;45.588;5.288;2024-02-26T01:59:21;8.50;99.90
32201;DHT22;18701;45.588;5.288;2024-02-26T02:01:50;8.50;99.90
32201;DHT22;18701;45.588;5.288;2024-02-26T02:04:17;8.50;99.90
32201;DHT22;18701;45.588;5.288;2024-02-26T02:06:45;8.40;99.90
32201;DHT22;18701;45.588;5.288;2024-02-26T02:09:11;8.40;99.90
32201;DHT22;18701;45.588;5.288;2024-02-26T02:11:37;8.40;99.90
32201;DHT22;18701;45.588;5.288;2024-02-26T02:14:03;8.30;99.90
32201;DHT22;18701;45.588;5.288;2024-02-26T02:16:29;8.40;99.90
32201;DHT22;18701;45.588;5.288;2024-02-26T02:18:55;8.40;99.90
32201;DHT22;18701;45.588;5.288;2024-02-26T02:21:20;8.30;99.90
32201;DHT22;18701;45.588;5.288;2024-02-26T02:23:46;8.10;99.90
32201;DHT22;18701;45.588;5.288;2024-02-26T02:26:13;8.10;99.90
32201;DHT22;18701;45.588;5.288;2024-02-26T02:28:39;8.20;99.90
32201;DHT22;18701;45.588;5.288;2024-02-26T02:31:05;8.20;99.90
32201;DHT22;18701;45.588;5.288;2024-02-26T02:33:32;8.20;99.90
32201;DHT22;18701;45.588;5.288;2024-02-26T02:35:58;8.20;99.90
32201;DHT22;18701;45.588;5.288;2024-02-26T02:38:24;8.20;99.90
32201;DHT22;18701;45.588;5.288;2024-02-26T02:40:54;8.20;99.90
32201;DHT22;18701;45.588;5.288;2024-02-26T02:43:19;8.20;99.90
32201;DHT22;18701;45.588;5.288;2024-02-26T02:45:45;8.20;99.90
32201;DHT22;18701;45.588;5.288;2024-02-26T02:48:11;8.00;99.90
32201;DHT22;18701;45.588;5.288;2024-02-26T02:50:37;8.00;99.90
32201;DHT22;18701;45.588;5.288;2024-02-26T02:53:02;8.10;99.90
32201;DHT22;18701;45.588;5.288;2024-02-26T02:55:28;8.00;99.90
32201;DHT22;18701;45.588;5.288;2024-02-26T02:57:54;8.10;99.90
32201;DHT22;18701;45.588;5.288;2024-02-26T03:00:20;8.10;99.90
32201;DHT22;18701;45.588;5.288;2024-02-26T03:02:48;8.10;99.90
32201;DHT22;18701;45.588;5.288;2024-02-26T03:05:14;8.00;99.90
32201;DHT22;18701;45.588;5.288;2024-02-26T03:07:39;8.00;99.90
32201;DHT22;18701;45.588;5.288;2024-02-26T03:10:05;8.10;99.90
32201;DHT22;18701;45.588;5.288;2024-02-26T03:12:31;8.10;99.90
32201;DHT22;18701;45.588;5.288;2024-02-26T03:14:57;8.20;99.90
32201;DHT22;18701;45.588;5.288;2024-02-26T03:17:22;8.00;99.90
32201;DHT22;18701;45.588;5.288;2024-02-26T03:19:49;8.00;99.90
32201;DHT22;18701;45.588;5.288;2024-02-26T03:22:19;8.00;99.90
32201;DHT22;18701;45.588;5.288;2024-02-26T03:24:45;7.90;99.90
32201;DHT22;18701;45.588;5.288;2024-02-26T03:27:11;8.00;99.90
32201;DHT22;18701;45.588;5.288;2024-02-26T03:29:37;8.00;99.90
32201;DHT22;18701;45.588;5.288;2024-02-26T03:32:03;8.00;99.90
32201;DHT22;18701;45.588;5.288;2024-02-26T03:34:29;8.00;99.90
32201;DHT22;18701;45.588;5.288;2024-02-26T03:36:56;7.90;99.90
32201;DHT22;18701;45.588;5.288;2024-02-26T03:39:21;7.80;99.90
32201;DHT22;18701;45.588;5.288;2024-02-26T03:41:48;7.80;99.90
32201;DHT22;18701;45.588;5.288;2024-02-26T03:44:14;7.90;99.90
32201;DHT22;18701;45.588;5.288;2024-02-26T03:46:39;7.90;99.90
32201;DHT22;18701;45.588;5.288;2024-02-26T03:49:05;7.90;99.90
32201;DHT22;18701;45.588;5.288;2024-02-26T03:51:31;8.00;99.90
32201;DHT22;18701;45.588;5.288;2024-02-26T03:53:58;8.00;99.90
32201;DHT22;18701;45.588;5.288;2024-02-26T03:56:24;8.00;99.90
32201;DHT22;18701;45.588;5.288;2024-02-26T03:58:49;8.00;99.90
32201;DHT22;18701;45.588;5.288;2024-02-26T04:01:15;8.00;99.90
32201;DHT22;18701;45.588;5.288;2024-02-26T04:03:41;7.90;99.90
32201;DHT22;18701;45.588;5.288;2024-02-26T04:06:10;7.90;99.90
32201;DHT22;18701;45.588;5.288;2024-02-26T04:08:37;8.00;99.90
32201;DHT22;18701;45.588;5.288;2024-02-26T04:11:03;8.00;99.90
32201;DHT22;18701;45.588;5.288;2024-02-26T04:13:33;8.10;99.90
32201;DHT22;18701;45.588;5.288;2024-02-26T04:15:59;8.10;99.90
32201;DHT22;18701;45.588;5.288;2024-02-26T04:18:27;8.10;99.90
32201;DHT22;18701;45.588;5.288;2024-02-26T04:20:52;8.10;99.90
32201;DHT22;18701;45.588;5.288;2024-02-26T04:23:18;8.10;99.90
32201;DHT22;18701;45.588;5.288;2024-02-26T04:25:43;8.20;99.90
32201;DHT22;18701;45.588;5.288;2024-02-26T04:28:09;8.20;99.90
32201;DHT22;18701;45.588;5.288;2024-02-26T04:30:35;8.20;99.90
32201;DHT22;18701;45.588;5.288;2024-02-26T04:33:00;8.20;99.90
32201;DHT22;18701;45.588;5.288;2024-02-26T04:35:26;8.20;99.90
32201;DHT22;18701;45.588;5.288;2024-02-26T04:37:51;8.30;99.90
32201;DHT22;18701;45.588;5.288;2024-02-26T04:40:17;8.30;99.90
32201;DHT22;18701;45.588;5.288;2024-02-26T04:42:42;8.20;99.90
32201;DHT22;18701;45.588;5.288;2024-02-26T04:45:08;8.30;99.90
32201;DHT22;18701;45.588;5.288;2024-02-26T04:47:34;8.40;99.90
32201;DHT22;18701;45.588;5.288;2024-02-26T04:50:00;8.40;99.90
32201;DHT22;18701;45.588;5.288;2024-02-26T04:52:25;8.40;99.90
32201;DHT22;18701;45.588;5.288;2024-02-26T04:54:51;8.40;99.90
32201;DHT22;18701;45.588;5.288;2024-02-26T04:57:17;8.40;99.90
32201;DHT22;18701;45.588;5.288;2024-02-26T04:59:44;8.50;99.90
32201;DHT22;18701;45.588;5.288;2024-02-26T05:02:11;8.40;99.90
32201;DHT22;18701;45.588;5.288;2024-02-26T05:04:37;8.40;99.90
32201;DHT22;18701;45.588;5.288;2024-02-26T05:07:02;8.30;99.90
32201;DHT22;18701;45.588;5.288;2024-02-26T05:09:29;8.20;99.90
32201;DHT22;18701;45.588;5.288;2024-02-26T05:11:54;8.20;99.90
32201;DHT22;18701;45.588;5.288;2024-02-26T05:14:20;8.10;99.90
32201;DHT22;18701;45.588;5.288;2024-02-26T05:16:47;8.10;99.90
32201;DHT22;18701;45.588;5.288;2024-02-26T05:19:13;8.10;99.90
32201;DHT22;18701;45.588;5.288;2024-02-26T05:21:38;8.00;99.90
32201;DHT22;18701;45.588;5.288;2024-02-26T05:24:05;8.00;99.90
32201;DHT22;18701;45.588;5.288;2024-02-26T05:26:31;8.00;99.90
32201;DHT22;18701;45.588;5.288;2024-02-26T05:28:57;7.90;99.90
32201;DHT22;18701;45.588;5.288;2024-02-26T05:31:26;7.90;99.90
32201;DHT22;18701;45.588;5.288;2024-02-26T05:33:52;7.80;99.90
32201;DHT22;18701;45.588;5.288;2024-02-26T05:36:19;7.80;99.90
32201;DHT22;18701;45.588;5.288;2024-02-26T05:38:46;7.80;99.90
32201;DHT22;18701;45.588;5.288;2024-02-26T05:41:12;7.80;99.90
32201;DHT22;18701;45.588;5.288;2024-02-26T05:43:37;7.80;99.90
32201;DHT22;18701;45.588;5.288;2024-02-26T05:46:03;7.80;99.90
32201;DHT22;18701;45.588;5.288;2024-02-26T05:48:29;7.80;99.90
32201;DHT22;18701;45.588;5.288;2024-02-26T05:50:54;7.70;99.90
32201;DHT22;18701;45.588;5.288;2024-02-26T05:53:20;7.70;99.90
32201;DHT22;18701;45.588;5.288;2024-02-26T05:55:46;7.70;99.90
32201;DHT22;18701;45.588;5.288;2024-02-26T05:58:11;7.80;99.90
32201;DHT22;18701;45.588;5.288;2024-02-26T06:00:37;7.70;99.90
32201;DHT22;18701;45.588;5.288;2024-02-26T06:03:03;7.80;99.90
32201;DHT22;18701;45.588;5.288;2024-02-26T06:05:28;7.80;99.90
32201;DHT22;18701;45.588;5.288;2024-02-26T06:07:54;7.80;99.90
32201;DHT22;18701;45.588;5.288;2024-02-26T06:10:20;7.80;99.90
32201;DHT22;18701;45.588;5.288;2024-02-26T06:12:47;7.90;99.90
32201;DHT22;18701;45.588;5.288;2024-02-26T06:15:12;7.90;99.90
32201;DHT22;18701;45.588;5.288;2024-02-26T06:17:38;7.90;99.90
32201;DHT22;18701;45.588;5.288;2024-02-26T06:20:04;7.90;99.90
32201;DHT22;18701;45.588;5.288;2024-02-26T06:22:32;7.90;99.90
32201;DHT22;18701;45.588;5.288;2024-02-26T06:24:57;7.90;99.90
32201;DHT22;18701;45.588;5.288;2024-02-26T06:27:23;8.00;99.90
32201;DHT22;18701;45.588;5.288;2024-02-26T06:29:49;7.90;99.90
32201;DHT22;18701;45.588;5.288;2024-02-26T06:32:15;8.00;99.90
32201;DHT22;18701;45.588;5.288;2024-02-26T06:34:40;7.80;99.90
32201;DHT22;18701;45.588;5.288;2024-02-26T06:37:07;7.80;99.90
32201;DHT22;18701;45.588;5.288;2024-02-26T06:39:33;7.80;99.90
32201;DHT22;18701;45.588;5.288;2024-02-26T06:41:59;7.70;99.90
32201;DHT22;18701;45.588;5.288;2024-02-26T06:44:28;7.70;99.90
32201;DHT22;18701;45.588;5.288;2024-02-26T06:47:00;7.50;99.90
32201;DHT22;18701;45.588;5.288;2024-02-26T06:49:26;7.60;99.90
32201;DHT22;18701;45.588;5.288;2024-02-26T06:51:51;7.70;99.90
32201;DHT22;18701;45.588;5.288;2024-02-26T06:54:17;7.70;99.90
32201;DHT22;18701;45.588;5.288;2024-02-26T06:56:43;7.70;99.90
32201;DHT22;18701;45.588;5.288;2024-02-26T06:59:08;7.80;99.90
32201;DHT22;18701;45.588;5.288;2024-02-26T07:01:34;7.90;99.90
32201;DHT22;18701;45.588;5.288;2024-02-26T07:04:00;7.90;99.90
32201;DHT22;18701;45.588;5.288;2024-02-26T07:06:29;7.90;99.90
32201;DHT22;18701;45.588;5.288;2024-02-26T07:08:54;7.90;99.90
32201;DHT22;18701;45.588;5.288;2024-02-26T07:11:20;7.90;99.90
32201;DHT22;18701;45.588;5.288;2024-02-26T07:13:46;8.00;99.90
32201;DHT22;18701;45.588;5.288;2024-02-26T07:16:12;8.00;99.90
32201;DHT22;18701;45.588;5.288;2024-02-26T07:18:41;8.10;99.90
32201;DHT22;18701;45.588;5.288;2024-02-26T07:21:06;8.00;99.90
32201;DHT22;18701;45.588;5.288;2024-02-26T07:23:32;8.00;99.90
32201;DHT22;18701;45.588;5.288;2024-02-26T07:25:59;8.10;99.90
32201;DHT22;18701;45.588;5.288;2024-02-26T07:28:25;8.10;99.90
32201;DHT22;18701;45.588;5.288;2024-02-26T07:30:50;8.10;99.90
32201;DHT22;18701;45.588;5.288;2024-02-26T07:33:16;8.10;99.90
32201;DHT22;18701;45.588;5.288;2024-02-26T07:35:42;8.20;99.90
32201;DHT22;18701;45.588;5.288;2024-02-26T07:38:07;8.20;99.90
32201;DHT22;18701;45.588;5.288;2024-02-26T07:40:33;8.20;99.90
32201;DHT22;18701;45.588;5.288;2024-02-26T07:42:59;8.20;99.90
32201;DHT22;18701;45.588;5.288;2024-02-26T07:45:24;8.30;99.90
32201;DHT22;18701;45.588;5.288;2024-02-26T07:47:50;8.20;99.90
32201;DHT22;18701;45.588;5.288;2024-02-26T07:50:17;8.20;99.90
32201;DHT22;18701;45.588;5.288;2024-02-26T07:52:42;8.20;99.90
32201;DHT22;18701;45.588;5.288;2024-02-26T07:55:09;8.30;99.90
32201;DHT22;18701;45.588;5.288;2024-02-26T07:57:34;8.30;99.90
32201;DHT22;18701;45.588;5.288;2024-02-26T08:00:01;8.40;99.90
32201;DHT22;18701;45.588;5.288;2024-02-26T08:02:26;8.50;99.90
32201;DHT22;18701;45.588;5.288;2024-02-26T08:04:52;8.50;99.90
32201;DHT22;18701;45.588;5.288;2024-02-26T08:07:17;8.60;99.90
32201;DHT22;18701;45.588;5.288;2024-02-26T08:09:43;8.70;99.90
32201;DHT22;18701;45.588;5.288;2024-02-26T08:12:08;8.80;99.90
32201;DHT22;18701;45.588;5.288;2024-02-26T08:14:34;8.80;99.90
32201;DHT22;18701;45.588;5.288;2024-02-26T08:17:00;8.80;99.90
32201;DHT22;18701;45.588;5.288;2024-02-26T08:19:26;9.00;99.90
32201;DHT22;18701;45.588;5.288;2024-02-26T08:21:52;9.10;99.90
32201;DHT22;18701;45.588;5.288;2024-02-26T08:24:18;9.30;99.90
32201;DHT22;18701;45.588;5.288;2024-02-26T08:26:43;9.50;99.90
32201;DHT22;18701;45.588;5.288;2024-02-26T08:29:09;9.70;99.90
32201;DHT22;18701;45.588;5.288;2024-02-26T08:31:34;9.90;99.90
32201;DHT22;18701;45.588;5.288;2024-02-26T08:34:03;10.00;99.90
32201;DHT22;18701;45.588;5.288;2024-02-26T08:36:30;10.00;99.90
32201;DHT22;18701;45.588;5.288;2024-02-26T08:38:55;10.00;99.90
32201;DHT22;18701;45.588;5.288;2024-02-26T08:41:21;10.20;99.90
32201;DHT22;18701;45.588;5.288;2024-02-26T08:43:46;10.20;99.90
32201;DHT22;18701;45.588;5.288;2024-02-26T08:46:12;10.20;99.90
32201;DHT22;18701;45.588;5.288;2024-02-26T08:48:39;10.10;99.90
32201;DHT22;18701;45.588;5.288;2024-02-26T08:51:08;10.10;99.90
32201;DHT22;18701;45.588;5.288;2024-02-26T08:53:35;10.10;99.90
32201;DHT22;18701;45.588;5.288;2024-02-26T08:56:01;10.10;99.90
32201;DHT22;18701;45.588;5.288;2024-02-26T08:58:29;10.10;99.90
32201;DHT22;18701;45.588;5.288;2024-02-26T09:00:55;10.10;99.90
32201;DHT22;18701;45.588;5.288;2024-02-26T09:03:21;10.10;99.90
32201;DHT22;18701;45.588;5.288;2024-02-26T09:05:47;10.00;99.90
32201;DHT22;18701;45.588;5.288;2024-02-26T09:08:13;10.00;99.90
32201;DHT22;18701;45.588;5.288;2024-02-26T09:10:39;10.00;99.90
32201;DHT22;18701;45.588;5.288;2024-02-26T09:13:04;10.00;99.90
32201;DHT22;18701;45.588;5.288;2024-02-26T09:15:30;9.90;99.90
32201;DHT22;18701;45.588;5.288;2024-02-26T09:17:56;10.00;99.90
32201;DHT22;18701;45.588;5.288;2024-02-26T09:20:21;10.20;99.90
32201;DHT22;18701;45.588;5.288;2024-02-26T09:22:49;10.50;99.90
32201;DHT22;18701;45.588;5.288;2024-02-26T09:25:15;10.50;99.90
32201;DHT22;18701;45.588;5.288;2024-02-26T09:27:44;10.70;99.90
32201;DHT22;18701;45.588;5.288;2024-02-26T09:30:13;10.90;99.90
32201;DHT22;18701;45.588;5.288;2024-02-26T09:32:39;11.10;99.90
32201;DHT22;18701;45.588;5.288;2024-02-26T09:35:06;11.20;99.90
32201;DHT22;18701;45.588;5.288;2024-02-26T09:37:32;11.30;99.90
32201;DHT22;18701;45.588;5.288;2024-02-26T09:39:58;11.50;99.90
32201;DHT22;18701;45.588;5.288;2024-02-26T09:42:26;11.50;99.90
32201;DHT22;18701;45.588;5.288;2024-02-26T09:44:54;11.60;99.90
32201;DHT22;18701;45.588;5.288;2024-02-26T09:47:23;11.70;99.90
32201;DHT22;18701;45.588;5.288;2024-02-26T09:49:53;11.70;99.90
32201;DHT22;18701;45.588;5.288;2024-02-26T09:52:20;12.00;99.90
32201;DHT22;18701;45.588;5.288;2024-02-26T09:54:49;12.00;99.90
32201;DHT22;18701;45.588;5.288;2024-02-26T09:57:16;12.20;99.90
32201;DHT22;18701;45.588;5.288;2024-02-26T09:59:43;12.40;99.90
32201;DHT22;18701;45.588;5.288;2024-02-26T10:02:13;12.40;99.90
32201;DHT22;18701;45.588;5.288;2024-02-26T10:04:42;12.40;99.90
32201;DHT22;18701;45.588;5.288;2024-02-26T10:07:12;12.30;99.90
32201;DHT22;18701;45.588;5.288;2024-02-26T10:09:39;12.60;99.90
32201;DHT22;18701;45.588;5.288;2024-02-26T10:12:05;12.70;99.90
32201;DHT22;18701;45.588;5.288;2024-02-26T10:14:32;12.70;99.90
32201;DHT22;18701;45.588;5.288;2024-02-26T10:16:59;12.90;99.90
32201;DHT22;18701;45.588;5.288;2024-02-26T10:19:30;13.00;99.90
32201;DHT22;18701;45.588;5.288;2024-02-26T10:22:00;13.10;99.90
32201;DHT22;18701;45.588;5.288;2024-02-26T10:24:26;13.20;99.90
32201;DHT22;18701;45.588;5.288;2024-02-26T10:26:53;13.20;99.90
32201;DHT22;18701;45.588;5.288;2024-02-26T10:29:20;13.10;99.90
32201;DHT22;18701;45.588;5.288;2024-02-26T10:31:46;12.90;99.90
32201;DHT22;18701;45.588;5.288;2024-02-26T10:34:12;13.30;99.90
32201;DHT22;18701;45.588;5.288;2024-02-26T10:36:40;13.30;99.90
32201;DHT22;18701;45.588;5.288;2024-02-26T10:39:06;13.10;99.90
32201;DHT22;18701;45.588;5.288;2024-02-26T10:41:35;13.60;99.90
32201;DHT22;18701;45.588;5.288;2024-02-26T10:44:01;13.40;99.90
32201;DHT22;18701;45.588;5.288;2024-02-26T10:46:27;13.40;99.90
32201;DHT22;18701;45.588;5.288;2024-02-26T10:48:53;13.30;99.90
32201;DHT22;18701;45.588;5.288;2024-02-26T10:51:27;13.50;99.90
32201;DHT22;18701;45.588;5.288;2024-02-26T10:53:56;13.60;99.90
32201;DHT22;18701;45.588;5.288;2024-02-26T10:56:28;13.80;99.90
32201;DHT22;18701;45.588;5.288;2024-02-26T10:58:58;13.80;99.90
32201;DHT22;18701;45.588;5.288;2024-02-26T11:01:24;13.80;99.90
32201;DHT22;18701;45.588;5.288;2024-02-26T11:03:51;14.20;99.90
32201;DHT22;18701;45.588;5.288;2024-02-26T11:06:19;14.10;99.90
32201;DHT22;18701;45.588;5.288;2024-02-26T11:08:48;14.00;99.90
32201;DHT22;18701;45.588;5.288;2024-02-26T11:11:15;14.10;99.90
32201;DHT22;18701;45.588;5.288;2024-02-26T11:13:43;14.10;99.90
32201;DHT22;18701;45.588;5.288;2024-02-26T11:16:13;14.40;99.90
32201;DHT22;18701;45.588;5.288;2024-02-26T11:18:40;14.90;99.90
32201;DHT22;18701;45.588;5.288;2024-02-26T11:21:07;14.80;99.90
32201;DHT22;18701;45.588;5.288;2024-02-26T11:23:34;15.20;99.90
32201;DHT22;18701;45.588;5.288;2024-02-26T11:26:04;15.30;99.90
32201;DHT22;18701;45.588;5.288;2024-02-26T11:28:32;14.90;99.90
32201;DHT22;18701;45.588;5.288;2024-02-26T11:31:00;15.40;99.90
32201;DHT22;18701;45.588;5.288;2024-02-26T11:33:26;16.70;99.90
32201;DHT22;18701;45.588;5.288;2024-02-26T11:35:53;20.80;99.90
32201;DHT22;18701;45.588;5.288;2024-02-26T11:38:21;21.50;98.90
32201;DHT22;18701;45.588;5.288;2024-02-26T11:40:50;18.70;98.80
32201;DHT22;18701;45.588;5.288;2024-02-26T11:43:16;18.50;99.90
32201;DHT22;18701;45.588;5.288;2024-02-26T11:48:12;18.70;99.90
32201;DHT22;18701;45.588;5.288;2024-02-26T11:50:47;19.10;99.30
32201;DHT22;18701;45.588;5.288;2024-02-26T11:55:51;20.80;98.00
32201;DHT22;18701;45.588;5.288;2024-02-26T11:58:34;22.10;97.20
32201;DHT22;18701;45.588;5.288;2024-02-26T12:00:59;23.80;93.20
32201;DHT22;18701;45.588;5.288;2024-02-26T12:03:25;22.60;93.70
32201;DHT22;18701;45.588;5.288;2024-02-26T12:05:51;22.10;93.30
32201;DHT22;18701;45.588;5.288;2024-02-26T12:08:17;23.80;92.30
32201;DHT22;18701;45.588;5.288;2024-02-26T12:10:45;22.10;91.90
32201;DHT22;18701;45.588;5.288;2024-02-26T12:15:55;23.70;90.80
32201;DHT22;18701;45.588;5.288;2024-02-26T12:18:22;24.80;90.30
32201;DHT22;18701;45.588;5.288;2024-02-26T12:20:58;23.60;90.70
32201;DHT22;18701;45.588;5.288;2024-02-26T12:23:25;23.30;90.50
32201;DHT22;18701;45.588;5.288;2024-02-26T12:25:50;26.50;87.10
32201;DHT22;18701;45.588;5.288;2024-02-26T12:28:16;27.30;82.90
32201;DHT22;18701;45.588;5.288;2024-02-26T12:30:42;26.10;83.40
32201;DHT22;18701;45.588;5.288;2024-02-26T12:33:07;26.60;80.50
32201;DHT22;18701;45.588;5.288;2024-02-26T12:35:34;27.80;79.70
32201;DHT22;18701;45.588;5.288;2024-02-26T12:38:00;27.00;75.40
32201;DHT22;18701;45.588;5.288;2024-02-26T12:40:26;24.70;78.60
32201;DHT22;18701;45.588;5.288;2024-02-26T12:42:53;24.60;79.70
32201;DHT22;18701;45.588;5.288;2024-02-26T12:45:20;26.10;79.60
32201;DHT22;18701;45.588;5.288;2024-02-26T12:47:46;26.30;76.80
32201;DHT22;18701;45.588;5.288;2024-02-26T12:50:12;24.90;77.50
32201;DHT22;18701;45.588;5.288;2024-02-26T12:52:42;24.80;76.90
32201;DHT22;18701;45.588;5.288;2024-02-26T12:55:09;25.60;77.30
32201;DHT22;18701;45.588;5.288;2024-02-26T12:57:37;25.40;77.90
32201;DHT22;18701;45.588;5.288;2024-02-26T13:00:05;25.30;77.10
32201;DHT22;18701;45.588;5.288;2024-02-26T13:02:35;25.10;77.30
32201;DHT22;18701;45.588;5.288;2024-02-26T13:05:04;25.10;77.50
32201;DHT22;18701;45.588;5.288;2024-02-26T13:07:31;25.40;75.70
32201;DHT22;18701;45.588;5.288;2024-02-26T13:09:56;25.40;75.80
32201;DHT22;18701;45.588;5.288;2024-02-26T13:12:22;27.20;73.60
32201;DHT22;18701;45.588;5.288;2024-02-26T13:14:58;27.10;73.00
32201;DHT22;18701;45.588;5.288;2024-02-26T13:17:24;26.70;73.30
32201;DHT22;18701;45.588;5.288;2024-02-26T13:19:53;27.00;73.20
32201;DHT22;18701;45.588;5.288;2024-02-26T13:22:21;28.30;73.00
32201;DHT22;18701;45.588;5.288;2024-02-26T13:24:54;28.90;72.30
32201;DHT22;18701;45.588;5.288;2024-02-26T13:27:23;27.60;71.60
32201;DHT22;18701;45.588;5.288;2024-02-26T13:30:05;27.90;70.90
32201;DHT22;18701;45.588;5.288;2024-02-26T13:32:35;27.50;71.30
32201;DHT22;18701;45.588;5.288;2024-02-26T13:35:05;28.20;72.00
32201;DHT22;18701;45.588;5.288;2024-02-26T13:37:31;29.60;70.10
32201;DHT22;18701;45.588;5.288;2024-02-26T13:39:57;28.90;69.70
32201;DHT22;18701;45.588;5.288;2024-02-26T13:42:22;27.00;69.00
32201;DHT22;18701;45.588;5.288;2024-02-26T13:44:48;25.60;72.20
32201;DHT22;18701;45.588;5.288;2024-02-26T13:47:14;27.10;70.60
32201;DHT22;18701;45.588;5.288;2024-02-26T13:49:40;25.40;70.30
32201;DHT22;18701;45.588;5.288;2024-02-26T13:52:05;22.70;72.90
32201;DHT22;18701;45.588;5.288;2024-02-26T13:54:31;21.80;76.00
32201;DHT22;18701;45.588;5.288;2024-02-26T13:56:57;20.50;78.50
32201;DHT22;18701;45.588;5.288;2024-02-26T13:59:22;20.20;80.50
32201;DHT22;18701;45.588;5.288;2024-02-26T14:01:48;19.60;83.30
32201;DHT22;18701;45.588;5.288;2024-02-26T14:04:13;21.10;80.20
32201;DHT22;18701;45.588;5.288;2024-02-26T14:06:48;21.00;81.10
32201;DHT22;18701;45.588;5.288;2024-02-26T14:09:13;19.30;84.30
32201;DHT22;18701;45.588;5.288;2024-02-26T14:11:47;19.30;85.30
32201;DHT22;18701;45.588;5.288;2024-02-26T14:14:12;21.10;85.60
32201;DHT22;18701;45.588;5.288;2024-02-26T14:16:38;24.30;78.70
32201;DHT22;18701;45.588;5.288;2024-02-26T14:19:04;20.30;85.10
32201;DHT22;18701;45.588;5.288;2024-02-26T14:21:29;19.20;88.50
32201;DHT22;18701;45.588;5.288;2024-02-26T14:23:55;21.60;84.80
32201;DHT22;18701;45.588;5.288;2024-02-26T14:26:22;22.70;82.60
32201;DHT22;18701;45.588;5.288;2024-02-26T14:28:48;26.40;78.30
32201;DHT22;18701;45.588;5.288;2024-02-26T14:31:16;26.70;75.40
32201;DHT22;18701;45.588;5.288;2024-02-26T14:33:42;26.10;74.60
32201;DHT22;18701;45.588;5.288;2024-02-26T14:36:08;26.80;74.40
32201;DHT22;18701;45.588;5.288;2024-02-26T14:38:33;24.30;75.80
32201;DHT22;18701;45.588;5.288;2024-02-26T14:40:59;25.20;75.10
32201;DHT22;18701;45.588;5.288;2024-02-26T14:43:24;26.00;73.30
32201;DHT22;18701;45.588;5.288;2024-02-26T14:45:50;25.70;73.70
32201;DHT22;18701;45.588;5.288;2024-02-26T14:48:15;26.60;72.20
32201;DHT22;18701;45.588;5.288;2024-02-26T14:50:41;27.50;71.30
32201;DHT22;18701;45.588;5.288;2024-02-26T14:53:07;26.80;70.80
32201;DHT22;18701;45.588;5.288;2024-02-26T14:55:32;27.80;70.00
32201;DHT22;18701;45.588;5.288;2024-02-26T14:57:58;26.40;70.70
32201;DHT22;18701;45.588;5.288;2024-02-26T15:00:23;28.20;69.60
32201;DHT22;18701;45.588;5.288;2024-02-26T15:02:49;27.90;69.20
32201;DHT22;18701;45.588;5.288;2024-02-26T15:05:14;28.80;68.00
32201;DHT22;18701;45.588;5.288;2024-02-26T15:07:42;26.80;68.70
32201;DHT22;18701;45.588;5.288;2024-02-26T15:10:08;26.60;69.40
32201;DHT22;18701;45.588;5.288;2024-02-26T15:12:34;27.50;68.20
32201;DHT22;18701;45.588;5.288;2024-02-26T15:14:59;27.80;68.50
32201;DHT22;18701;45.588;5.288;2024-02-26T15:17:27;27.10;68.50
32201;DHT22;18701;45.588;5.288;2024-02-26T15:19:53;27.90;67.80
32201;DHT22;18701;45.588;5.288;2024-02-26T15:22:19;27.50;68.70
32201;DHT22;18701;45.588;5.288;2024-02-26T15:24:45;26.90;68.80
32201;DHT22;18701;45.588;5.288;2024-02-26T15:27:12;25.10;71.20
32201;DHT22;18701;45.588;5.288;2024-02-26T15:29:38;26.10;68.30
32201;DHT22;18701;45.588;5.288;2024-02-26T15:32:05;24.90;69.30
32201;DHT22;18701;45.588;5.288;2024-02-26T15:34:30;25.00;70.10
32201;DHT22;18701;45.588;5.288;2024-02-26T15:36:56;24.40;71.10
32201;DHT22;18701;45.588;5.288;2024-02-26T15:39:21;25.00;69.50
32201;DHT22;18701;45.588;5.288;2024-02-26T15:41:47;24.30;71.10